createdAt,value
2022-11-17T00:00:46.652Z,11.32
2022-11-17T00:03:15.952Z,11.40
2022-11-17T00:05:47.818Z,11.07
2022-11-17T00:08:17.851Z,12.13
2022-11-17T00:10:45.800Z,13.25
2022-11-17T00:13:34.094Z,12.40
2022-11-17T00:16:03.882Z,14.10
2022-11-17T00:18:50.187Z,10.77
2022-11-17T00:21:24.100Z,13.98
2022-11-17T00:23:56.253Z,13.43
2022-11-17T00:26:26.499Z,13.65
2022-11-17T00:28:55.717Z,13.13
2022-11-17T00:31:57.330Z,16.13
2022-11-17T00:34:25.811Z,12.00
2022-11-17T00:36:55.697Z,14.48
2022-11-17T00:39:26.544Z,14.40
2022-11-17T00:41:54.560Z,15.38
2022-11-17T00:44:25.338Z,14.20
2022-11-17T00:46:55.091Z,14.73
2022-11-17T00:49:26.939Z,14.45
2022-11-17T00:51:56.137Z,13.55
2022-11-17T00:54:26.256Z,14.23
2022-11-17T00:56:54.253Z,14.30
2022-11-17T00:59:22.251Z,14.43
2022-11-17T01:01:55.159Z,14.15
2022-11-17T01:04:23.972Z,15.27
2022-11-17T01:06:52.391Z,13.77
2022-11-17T01:09:23.728Z,15.55
2022-11-17T01:11:55.065Z,15.93
2022-11-17T01:14:25.205Z,14.80
2022-11-17T01:16:54.779Z,16.75
2022-11-17T01:19:24.961Z,11.90
2022-11-17T01:21:53.953Z,14.13
2022-11-17T01:24:22.458Z,15.18
2022-11-17T01:26:55.332Z,14.98
2022-11-17T01:29:23.758Z,16.27
2022-11-17T01:31:54.151Z,14.35
2022-11-17T01:34:23.233Z,14.70
2022-11-17T01:37:09.008Z,12.70
2022-11-17T01:39:37.620Z,13.98
2022-11-17T01:42:14.765Z,14.85
2022-11-17T01:45:03.046Z,14.15
2022-11-17T01:47:36.165Z,13.50
2022-11-17T01:50:09.455Z,11.70
2022-11-17T01:52:39.188Z,13.57
2022-11-17T01:55:09.199Z,14.43
2022-11-17T01:57:40.918Z,13.65
2022-11-17T02:00:11.346Z,13.43
2022-11-17T02:02:41.260Z,13.48
2022-11-17T02:05:20.039Z,13.30
2022-11-17T02:07:49.282Z,12.32
2022-11-17T02:10:19.034Z,13.82
2022-11-17T02:12:49.548Z,13.15
2022-11-17T02:15:18.692Z,13.50
2022-11-17T02:17:46.936Z,12.95
2022-11-17T02:20:16.780Z,14.38
2022-11-17T02:23:13.706Z,13.60
2022-11-17T02:26:08.456Z,13.55
2022-11-17T02:28:43.325Z,14.35
2022-11-17T02:31:19.374Z,12.52
2022-11-17T02:33:56.128Z,14.35
2022-11-17T02:36:37.352Z,13.52
2022-11-17T02:39:11.804Z,12.30
2022-11-17T02:41:47.909Z,12.98
2022-11-17T02:44:23.107Z,13.35
2022-11-17T02:46:56.156Z,14.60
2022-11-17T02:49:28.343Z,13.70
2022-11-17T02:52:01.621Z,13.20
2022-11-17T02:54:34.695Z,14.60
2022-11-17T02:57:03.025Z,13.55
2022-11-17T02:59:37.628Z,13.43
2022-11-17T03:02:23.493Z,12.90
2022-11-17T03:05:06.258Z,12.88
2022-11-17T03:07:46.977Z,12.68
2022-11-17T03:10:18.931Z,13.57
2022-11-17T03:12:50.242Z,13.10
2022-11-17T03:15:33.637Z,12.37
2022-11-17T03:18:10.080Z,11.90
2022-11-17T03:20:42.646Z,12.18
2022-11-17T03:23:15.742Z,12.38
2022-11-17T03:25:48.526Z,12.45
2022-11-17T03:28:17.524Z,11.27
2022-11-17T03:30:51.692Z,12.32
2022-11-17T03:33:23.423Z,12.73
2022-11-17T03:35:56.761Z,12.98
2022-11-17T03:38:29.042Z,11.50
2022-11-17T03:43:32.041Z,12.52
2022-11-17T03:46:07.724Z,11.65
2022-11-17T03:48:37.989Z,13.65
2022-11-17T03:51:09.555Z,11.73
2022-11-17T03:53:38.971Z,11.32
2022-11-17T03:56:16.858Z,12.75
2022-11-17T03:58:50.992Z,13.00
2022-11-17T04:01:21.108Z,13.20
2022-11-17T04:03:49.795Z,13.55
2022-11-17T04:06:21.398Z,13.43
2022-11-17T04:08:49.919Z,13.93
2022-11-17T04:11:36.835Z,13.13
2022-11-17T04:14:24.252Z,12.88
2022-11-17T04:16:56.616Z,14.50
2022-11-17T04:19:24.883Z,12.88
2022-11-17T04:21:53.113Z,14.45
2022-11-17T04:24:21.649Z,15.38
2022-11-17T04:27:09.901Z,13.20
2022-11-17T04:29:39.473Z,12.52
2022-11-17T04:32:08.928Z,14.38
2022-11-17T04:34:46.142Z,13.18
2022-11-17T04:37:18.179Z,15.20
2022-11-17T04:39:55.843Z,14.20
2022-11-17T04:42:24.528Z,15.27
2022-11-17T04:44:55.714Z,14.25
2022-11-17T04:47:25.351Z,15.35
2022-11-17T04:49:54.615Z,13.80
2022-11-17T04:52:26.908Z,13.93
2022-11-17T04:54:57.670Z,13.65
2022-11-17T04:57:26.237Z,13.80
2022-11-17T04:59:54.153Z,13.95
2022-11-17T05:02:22.498Z,14.18
2022-11-17T05:04:59.551Z,13.32
2022-11-17T05:07:28.424Z,14.02
2022-11-17T05:09:57.719Z,14.55
2022-11-17T05:12:43.799Z,14.32
2022-11-17T05:15:32.677Z,13.10
2022-11-17T05:18:00.018Z,14.32
2022-11-17T05:20:29.505Z,15.02
2022-11-17T05:23:15.808Z,14.48
2022-11-17T05:25:49.365Z,15.05
2022-11-17T05:28:17.347Z,14.35
2022-11-17T05:30:45.779Z,14.07
2022-11-17T05:33:15.133Z,17.13
2022-11-17T05:35:44.839Z,14.13
2022-11-17T05:38:14.707Z,15.02
2022-11-17T05:40:43.157Z,12.05
2022-11-17T05:43:11.330Z,15.65
2022-11-17T05:45:40.390Z,16.75
2022-11-17T05:48:08.509Z,16.27
2022-11-17T05:50:39.390Z,13.80
2022-11-17T05:53:12.779Z,16.13
2022-11-17T05:55:41.111Z,15.35
2022-11-17T05:58:12.389Z,15.00
2022-11-17T06:03:16.628Z,14.20
2022-11-17T06:05:45.841Z,15.13
2022-11-17T06:08:19.593Z,13.70
2022-11-17T06:10:48.443Z,16.60
2022-11-17T06:13:29.551Z,17.38
2022-11-17T06:16:01.044Z,14.77
2022-11-17T06:18:31.569Z,16.67
2022-11-17T06:20:59.581Z,16.10
2022-11-17T06:23:31.977Z,19.85
2022-11-17T06:26:01.439Z,23.20
2022-11-17T06:28:29.995Z,14.48
2022-11-17T06:30:58.897Z,17.52
2022-11-17T06:33:29.300Z,15.13
2022-11-17T06:36:00.157Z,15.25
2022-11-17T06:38:29.767Z,15.20
2022-11-17T06:40:57.949Z,15.27
2022-11-17T06:43:28.462Z,13.63
2022-11-17T06:45:57.595Z,15.93
2022-11-17T06:48:27.196Z,14.93
2022-11-17T06:50:55.956Z,15.18
2022-11-17T06:53:26.855Z,14.55
2022-11-17T06:56:02.624Z,14.05
2022-11-17T06:58:31.341Z,12.60
2022-11-17T07:01:03.734Z,12.68
2022-11-17T07:03:32.500Z,12.48
2022-11-17T07:06:02.964Z,12.57
2022-11-17T07:08:31.548Z,11.68
2022-11-17T07:11:09.429Z,13.13
2022-11-17T07:13:38.288Z,12.85
2022-11-17T07:16:09.386Z,11.82
2022-11-17T07:18:39.136Z,12.23
2022-11-17T07:21:10.243Z,12.00
2022-11-17T07:23:40.797Z,11.57
2022-11-17T07:26:10.906Z,10.80
2022-11-17T07:28:40.222Z,12.90
2022-11-17T07:31:11.243Z,11.38
2022-11-17T07:33:39.504Z,12.50
2022-11-17T07:36:13.141Z,13.43
2022-11-17T07:38:42.694Z,11.23
2022-11-17T07:41:14.408Z,13.32
2022-11-17T07:43:43.486Z,11.23
2022-11-17T07:46:15.978Z,11.95
2022-11-17T07:48:44.751Z,11.82
2022-11-17T07:51:14.035Z,12.85
2022-11-17T07:53:42.362Z,11.00
2022-11-17T07:56:13.427Z,11.85
2022-11-17T07:58:43.694Z,12.40
2022-11-17T08:01:17.814Z,11.90
2022-11-17T08:03:47.521Z,12.27
2022-11-17T08:06:16.947Z,11.55
2022-11-17T08:08:45.008Z,12.32
2022-11-17T08:11:15.306Z,10.93
2022-11-17T08:13:44.170Z,11.63
2022-11-17T08:16:13.026Z,13.57
2022-11-17T08:18:41.994Z,10.07
2022-11-17T08:21:19.179Z,11.77
2022-11-17T08:23:51.040Z,11.00
2022-11-17T08:26:25.423Z,11.20
2022-11-17T08:28:58.112Z,10.85
2022-11-17T08:31:26.868Z,11.65
2022-11-17T08:33:55.608Z,13.45
2022-11-17T08:36:24.267Z,13.15
2022-11-17T08:38:52.378Z,12.18
2022-11-17T08:41:22.319Z,11.35
2022-11-17T08:43:55.748Z,10.15
2022-11-17T08:46:25.819Z,12.05
2022-11-17T08:48:57.226Z,12.77
2022-11-17T08:51:27.213Z,11.70
2022-11-17T08:53:55.643Z,13.35
2022-11-17T08:56:25.776Z,13.00
2022-11-17T08:58:53.766Z,13.30
2022-11-17T09:01:22.298Z,9.75
2022-11-17T09:03:51.015Z,10.77
2022-11-17T09:06:20.120Z,12.27
2022-11-17T09:08:48.899Z,12.95
2022-11-17T09:11:17.603Z,12.82
2022-11-17T09:13:47.679Z,12.25
2022-11-17T09:16:16.939Z,12.20
2022-11-17T09:18:45.988Z,11.73
2022-11-17T09:21:16.566Z,12.13
2022-11-17T09:23:47.398Z,12.00
2022-11-17T09:26:18.012Z,13.30
2022-11-17T09:28:49.317Z,12.20
2022-11-17T09:31:19.010Z,13.10
2022-11-17T09:33:47.483Z,12.18
2022-11-17T09:36:17.228Z,12.95
2022-11-17T09:38:48.721Z,11.77
2022-11-17T09:41:26.617Z,12.77
2022-11-17T09:44:07.551Z,11.23
2022-11-17T09:46:49.477Z,11.50
2022-11-17T09:49:27.131Z,12.27
2022-11-17T09:52:00.585Z,10.50
2022-11-17T09:54:35.875Z,13.57
2022-11-17T09:57:04.994Z,12.95
2022-11-17T09:59:34.842Z,12.23
2022-11-17T10:02:04.305Z,12.00
2022-11-17T10:04:32.334Z,12.32
2022-11-17T10:07:00.472Z,11.40
2022-11-17T10:09:36.189Z,13.10
2022-11-17T10:12:23.892Z,13.43
2022-11-17T10:14:55.465Z,13.48
2022-11-17T10:17:25.930Z,12.75
2022-11-17T10:19:56.074Z,13.20
2022-11-17T10:22:38.318Z,11.88
2022-11-17T10:25:27.000Z,13.18
2022-11-17T10:27:56.774Z,14.68
2022-11-17T10:30:26.430Z,13.05
2022-11-17T10:32:58.020Z,15.27
2022-11-17T10:35:30.474Z,13.85
2022-11-17T10:38:02.393Z,13.55
2022-11-17T10:40:32.325Z,14.68
2022-11-17T10:43:17.850Z,14.55
2022-11-17T10:45:56.557Z,16.25
2022-11-17T10:48:28.358Z,16.63
2022-11-17T10:50:58.128Z,13.60
2022-11-17T10:53:29.869Z,12.15
2022-11-17T10:56:07.533Z,14.93
2022-11-17T10:59:00.998Z,16.20
2022-11-17T11:01:33.988Z,13.65
2022-11-17T11:04:07.510Z,15.02
2022-11-17T11:06:37.558Z,15.00
2022-11-17T11:09:16.220Z,16.17
2022-11-17T11:11:51.661Z,16.90
2022-11-17T11:14:24.962Z,14.95
2022-11-17T11:16:57.452Z,14.98
2022-11-17T11:19:25.542Z,15.80
2022-11-17T11:22:28.704Z,15.20
2022-11-17T11:25:07.160Z,14.35
2022-11-17T11:28:05.489Z,17.17
2022-11-17T11:30:40.952Z,13.98
2022-11-17T11:33:25.550Z,14.32
2022-11-17T11:36:03.504Z,12.35
2022-11-17T11:38:58.347Z,15.63
2022-11-17T11:41:41.464Z,14.63
2022-11-17T11:46:51.357Z,13.65
2022-11-17T11:49:31.123Z,14.73
2022-11-17T11:51:59.340Z,13.60
2022-11-17T11:54:37.165Z,14.55
2022-11-17T11:57:13.140Z,13.45
2022-11-17T11:59:48.299Z,14.30
2022-11-17T12:02:26.795Z,15.43
2022-11-17T12:05:01.705Z,14.48
2022-11-17T12:07:39.905Z,12.95
2022-11-17T12:10:14.001Z,12.00
2022-11-17T12:12:49.235Z,13.55
2022-11-17T12:15:51.214Z,14.85
2022-11-17T12:18:37.919Z,11.93
2022-11-17T12:21:14.694Z,12.43
2022-11-17T12:24:07.444Z,12.15
2022-11-17T12:26:36.920Z,13.57
2022-11-17T12:29:26.162Z,11.02
2022-11-17T12:31:56.099Z,13.13
2022-11-17T12:34:35.334Z,14.00
2022-11-17T12:37:32.702Z,11.35
2022-11-17T12:40:04.873Z,11.75
2022-11-17T12:42:34.604Z,13.73
2022-11-17T12:45:07.887Z,13.98
2022-11-17T12:47:40.683Z,11.85
2022-11-17T12:50:37.651Z,11.60
2022-11-17T12:53:45.093Z,12.57
2022-11-17T12:56:41.536Z,11.02
2022-11-17T12:59:39.192Z,12.25
2022-11-17T13:02:21.625Z,12.73
2022-11-17T13:07:21.417Z,12.88
2022-11-17T13:09:54.317Z,12.20
2022-11-17T13:12:25.143Z,11.90
2022-11-17T13:14:59.189Z,13.20
2022-11-17T13:17:34.396Z,12.30
2022-11-17T13:20:04.357Z,12.32
2022-11-17T13:22:42.317Z,13.15
2022-11-17T13:25:22.393Z,12.35
2022-11-17T13:27:57.186Z,12.15
2022-11-17T13:30:32.699Z,11.40
2022-11-17T13:33:02.689Z,12.68
2022-11-17T13:35:36.522Z,10.63
2022-11-17T13:38:21.303Z,13.00
2022-11-17T13:40:51.632Z,11.38
2022-11-17T13:43:23.744Z,9.18
2022-11-17T13:46:04.040Z,11.98
2022-11-17T13:48:33.145Z,10.30
2022-11-17T13:51:25.641Z,11.40
2022-11-17T13:53:59.619Z,10.38
2022-11-17T13:56:34.934Z,10.35
2022-11-17T13:59:13.163Z,9.82
2022-11-17T14:01:44.291Z,9.75
2022-11-17T14:04:19.766Z,11.57
2022-11-17T14:06:57.300Z,9.98
2022-11-17T14:09:27.616Z,10.48
2022-11-17T14:11:57.668Z,11.38
2022-11-17T14:14:33.211Z,10.85
2022-11-17T14:17:13.763Z,11.40
2022-11-17T14:19:44.794Z,11.40
2022-11-17T14:22:31.382Z,12.20
2022-11-17T14:25:02.431Z,13.45
2022-11-17T14:27:39.024Z,11.55
2022-11-17T14:30:16.099Z,12.38
2022-11-17T14:32:48.069Z,12.43
2022-11-17T14:35:20.135Z,13.40
2022-11-17T14:37:50.974Z,13.52
2022-11-17T14:40:19.107Z,15.00
2022-11-17T14:42:48.544Z,13.88
2022-11-17T14:45:22.416Z,13.68
2022-11-17T14:47:54.791Z,13.55
2022-11-17T14:50:26.060Z,14.02
2022-11-17T14:52:54.602Z,15.40
2022-11-17T14:55:24.989Z,15.13
2022-11-17T14:57:54.059Z,14.07
2022-11-17T15:00:24.773Z,14.45
2022-11-17T15:02:53.461Z,14.85
2022-11-17T15:05:21.746Z,15.82
2022-11-17T15:07:52.754Z,13.95
2022-11-17T15:10:22.166Z,14.35
2022-11-17T15:12:52.707Z,14.25
2022-11-17T15:15:21.152Z,13.98
2022-11-17T15:17:52.238Z,11.32
2022-11-17T15:20:21.947Z,13.63
2022-11-17T15:22:51.338Z,14.23
2022-11-17T15:25:23.059Z,13.48
2022-11-17T15:27:53.739Z,14.02
2022-11-17T15:30:23.031Z,14.90
2022-11-17T15:32:55.700Z,14.27
2022-11-17T15:35:24.695Z,14.82
2022-11-17T15:37:55.665Z,15.65
2022-11-17T15:40:24.623Z,14.27
2022-11-17T15:42:59.133Z,16.00
2022-11-17T15:45:29.357Z,15.10
2022-11-17T15:47:59.602Z,15.30
2022-11-17T15:50:28.325Z,16.30
2022-11-17T15:53:04.190Z,16.45
2022-11-17T15:55:35.733Z,15.50
2022-11-17T15:58:07.244Z,15.25
2022-11-17T16:00:36.377Z,17.13
2022-11-17T16:03:07.217Z,16.13
2022-11-17T16:05:35.401Z,16.02
2022-11-17T16:08:05.350Z,16.88
2022-11-17T16:10:34.851Z,16.00
2022-11-17T16:13:02.907Z,14.57
2022-11-17T16:15:30.965Z,15.95
2022-11-17T16:17:58.906Z,17.38
2022-11-17T16:20:28.456Z,14.35
2022-11-17T16:22:59.340Z,16.90
2022-11-17T16:25:27.340Z,16.38
2022-11-17T16:27:55.566Z,17.67
2022-11-17T16:30:31.371Z,19.10
2022-11-17T16:33:02.882Z,17.90
2022-11-17T16:35:36.155Z,17.38
2022-11-17T16:38:06.748Z,19.30
2022-11-17T16:40:46.149Z,17.05
2022-11-17T16:43:14.937Z,19.83
2022-11-17T16:45:45.768Z,19.67
2022-11-17T16:48:14.165Z,20.95
2022-11-17T16:50:46.793Z,20.25
2022-11-17T16:53:16.362Z,20.30
2022-11-17T16:55:46.911Z,18.73
2022-11-17T16:58:17.791Z,20.27
2022-11-17T17:00:46.963Z,18.48
2022-11-17T17:03:16.122Z,18.52
2022-11-17T17:05:47.683Z,19.27
2022-11-17T17:08:16.436Z,17.38
2022-11-17T17:10:48.099Z,19.77
2022-11-17T17:13:17.698Z,19.05
2022-11-17T17:15:45.976Z,16.33
2022-11-17T17:18:16.133Z,20.30
2022-11-17T17:20:51.859Z,20.05
2022-11-17T17:23:20.467Z,17.13
2022-11-17T17:25:49.781Z,19.25
2022-11-17T17:28:19.838Z,19.58
2022-11-17T17:30:54.494Z,20.20
2022-11-17T17:33:23.436Z,19.70
2022-11-17T17:35:52.699Z,19.27
2022-11-17T17:38:21.027Z,17.85
2022-11-17T17:40:49.439Z,19.80
2022-11-17T17:43:20.229Z,19.23
2022-11-17T17:45:48.194Z,18.63
2022-11-17T17:48:16.582Z,17.38
2022-11-17T17:50:48.638Z,17.95
2022-11-17T17:55:46.814Z,16.85
2022-11-17T17:58:15.894Z,17.67
2022-11-17T18:00:44.627Z,19.52
2022-11-17T18:03:13.031Z,15.73
2022-11-17T18:05:42.638Z,17.27
2022-11-17T18:08:10.949Z,17.75
2022-11-17T18:10:40.976Z,18.67
2022-11-17T18:13:13.488Z,18.38
2022-11-17T18:15:42.444Z,20.20
2022-11-17T18:18:12.636Z,18.73
2022-11-17T18:20:43.746Z,16.67
2022-11-17T18:23:11.839Z,18.80
2022-11-17T18:25:42.098Z,18.38
2022-11-17T18:28:12.777Z,18.63
2022-11-17T18:30:41.997Z,18.50
2022-11-17T18:33:10.276Z,16.77
2022-11-17T18:35:38.596Z,19.52
2022-11-17T18:38:07.286Z,19.45
2022-11-17T18:40:37.155Z,20.33
2022-11-17T18:43:06.490Z,19.25
2022-11-17T18:45:38.988Z,16.20
2022-11-17T18:48:07.654Z,15.82
2022-11-17T18:50:57.930Z,20.23
2022-11-17T18:53:28.363Z,19.67
2022-11-17T18:56:03.261Z,19.10
2022-11-17T18:58:38.591Z,18.90
2022-11-17T19:01:15.193Z,18.70
2022-11-17T19:03:46.690Z,18.23
2022-11-17T19:06:17.361Z,18.67
2022-11-17T19:08:48.284Z,17.17
2022-11-17T19:11:22.838Z,19.60
2022-11-17T19:13:56.273Z,16.88
2022-11-17T19:16:27.033Z,16.95
2022-11-17T19:18:58.194Z,18.65
2022-11-17T19:21:27.706Z,20.17
2022-11-17T19:23:58.168Z,20.80
2022-11-17T19:26:31.308Z,18.85
2022-11-17T19:29:03.362Z,20.08
2022-11-17T19:31:33.898Z,19.15
2022-11-17T19:34:02.145Z,21.17
2022-11-17T19:36:32.019Z,21.10
2022-11-17T19:39:02.590Z,21.13
2022-11-17T19:41:32.365Z,21.13
2022-11-17T19:44:05.469Z,22.40
2022-11-17T19:46:36.686Z,21.02
2022-11-17T19:49:06.341Z,20.20
2022-11-17T19:51:38.424Z,20.00
2022-11-17T19:54:08.150Z,22.17
2022-11-17T19:56:39.689Z,21.77
2022-11-17T19:59:15.278Z,23.77
2022-11-17T20:01:46.509Z,23.77
2022-11-17T20:04:15.900Z,25.88
2022-11-17T20:06:45.536Z,23.85
2022-11-17T20:09:17.798Z,24.23
2022-11-17T20:11:49.445Z,23.80
2022-11-17T20:14:20.489Z,24.95
2022-11-17T20:16:50.508Z,25.48
2022-11-17T20:19:20.136Z,25.23
2022-11-17T20:21:57.701Z,25.17
2022-11-17T20:24:27.020Z,25.77
2022-11-17T20:26:56.523Z,26.05
2022-11-17T20:29:26.635Z,25.27
2022-11-17T20:32:02.572Z,25.67
2022-11-17T20:34:30.794Z,28.55
2022-11-17T20:36:59.097Z,25.75
2022-11-17T20:39:27.750Z,26.33
2022-11-17T20:41:56.670Z,26.83
2022-11-17T20:44:27.856Z,26.20
2022-11-17T20:46:56.797Z,28.48
2022-11-17T20:49:25.541Z,25.35
2022-11-17T20:51:56.654Z,24.33
2022-11-17T20:54:24.709Z,24.38
2022-11-17T20:56:53.544Z,25.48
2022-11-17T20:59:22.355Z,26.52
2022-11-17T21:01:54.736Z,26.20
2022-11-17T21:04:23.507Z,27.35
2022-11-17T21:06:54.087Z,26.35
2022-11-17T21:09:22.987Z,28.45
2022-11-17T21:12:00.112Z,27.50
2022-11-17T21:14:35.252Z,27.33
2022-11-17T21:17:24.628Z,23.63
2022-11-17T21:19:54.820Z,28.25
2022-11-17T21:22:23.074Z,29.35
2022-11-17T21:24:56.276Z,28.20
2022-11-17T21:27:26.726Z,28.58
2022-11-17T21:29:59.167Z,29.67
2022-11-17T21:32:29.089Z,28.35
2022-11-17T21:34:59.405Z,29.35
2022-11-17T21:37:28.467Z,23.37
2022-11-17T21:39:59.245Z,31.00
2022-11-17T21:42:27.851Z,30.88
2022-11-17T21:44:56.938Z,28.85
2022-11-17T21:47:30.985Z,29.38
2022-11-17T21:50:02.027Z,23.65
2022-11-17T21:52:30.462Z,27.05
2022-11-17T21:54:58.736Z,24.00
2022-11-17T21:57:27.261Z,24.73
2022-11-17T21:59:56.194Z,28.80
2022-11-17T22:02:25.063Z,30.20
2022-11-17T22:04:56.542Z,25.58
2022-11-17T22:07:31.208Z,30.08
2022-11-17T22:09:59.669Z,29.58
2022-11-17T22:12:30.073Z,29.13
2022-11-17T22:15:00.046Z,28.88
2022-11-17T22:17:28.253Z,29.80
2022-11-17T22:20:01.087Z,27.60
2022-11-17T22:22:29.627Z,27.50
2022-11-17T22:25:11.446Z,23.33
2022-11-17T22:27:46.300Z,27.42
2022-11-17T22:30:17.150Z,28.63
2022-11-17T22:32:46.620Z,28.33
2022-11-17T22:35:17.336Z,27.50
2022-11-17T22:37:46.509Z,28.55
2022-11-17T22:40:17.570Z,25.98
2022-11-17T22:42:46.224Z,28.05
2022-11-17T22:45:14.784Z,27.92
2022-11-17T22:47:46.248Z,25.55
2022-11-17T22:50:14.574Z,27.02
2022-11-17T22:52:44.087Z,26.50
2022-11-17T22:55:12.819Z,27.63
2022-11-17T22:57:41.158Z,27.33
2022-11-17T23:00:14.672Z,27.27
2022-11-17T23:02:42.829Z,27.23
2022-11-17T23:05:11.218Z,22.92
2022-11-17T23:07:44.876Z,26.77
2022-11-17T23:10:15.497Z,27.67
2022-11-17T23:12:43.600Z,26.75
2022-11-17T23:15:13.922Z,27.52
2022-11-17T23:17:46.161Z,26.42
2022-11-17T23:22:44.443Z,27.00
2022-11-17T23:25:15.120Z,26.55
2022-11-17T23:27:43.592Z,28.25
2022-11-17T23:30:13.883Z,24.23
2022-11-17T23:32:42.331Z,26.88
2022-11-17T23:35:11.513Z,27.70
2022-11-17T23:37:43.194Z,31.38
2022-11-17T23:40:16.453Z,28.13
2022-11-17T23:42:45.953Z,25.73
2022-11-17T23:45:14.310Z,27.35
2022-11-17T23:47:44.183Z,26.83
2022-11-17T23:50:12.314Z,28.75
2022-11-17T23:52:40.870Z,27.88
2022-11-17T23:55:09.411Z,27.27
2022-11-17T23:57:38.633Z,27.35
